Anton, Texas
Current Conditions -  °F | °C
As of 4:53 AM on Wednesday 22 Oct 2014 (Local Time) from KLBB Reporting Station
Overcast Overcast  
Wind Chill: 17°   Ceiling: 5000
Heat Index: 17°   Visibility: 10mi
Dew Point: 11°   Wind: 8mph
Humidity: 67%   Direction: 160°SSE
Pressure: 30.09"   Gusts: NA
Location:  33.81°N, 102.16°W
Report Text: KLBB 220953Z 16007KT 10SM FEW040 OVC050 17/11 A3009 RMK AO2 RAB04E32 SLP148 VCSH S-SW P0000 T01670106
Loading
Personal Weather Stations






























Interactive Weather Map New forecast layout! Learn more

10-Day Weather Forecast

Advertisements
Track Severe Weather on mobile